Time;durP1;ratioP1;P1;durP2;ratioP2;P2;SDS_P1;SDS_P2;PMS_P1;PMS_P2;Temp;Humidity;BMP_temperature;BMP_pressure;BME280_temperature;BME280_humidity;BME280_pressure;Samples;Min_cycle;Max_cycle;Signal;HPM_P1;HPM_P2
2022/12/15 00:40:03;;;;;;;52.50;31.33;;;;;;;;;;4973443;28;20058;-79
2022/12/15 00:42:31;;;;;;;57.75;30.98;;;;;;;;;;4956635;28;20062;-79
2022/12/15 00:44:57;;;;;;;63.05;33.35;;;;;;;;;;4926151;28;20055;-80
2022/12/15 00:47:24;;;;;;;56.10;31.58;;;;;;;;;;4962248;28;20058;-80
2022/12/15 01:20:19;;;;;;;51.45;30.45;;;;;;;;;;4956055;28;20051;-77
2022/12/15 01:22:47;;;;;;;54.97;31.10;;;;;;;;;;4954531;28;20051;-77
2022/12/15 01:25:14;;;;;;;54.05;31.90;;;;;;;;;;4937539;28;20054;-77
2022/12/15 01:27:41;;;;;;;59.72;32.63;;;;;;;;;;4936996;28;20061;-77
2022/12/15 01:30:10;;;;;;;55.75;31.63;;;;;;;;;;4967678;28;20054;-78
2022/12/15 01:32:37;;;;;;;56.08;31.77;;;;;;;;;;4953393;29;20051;-79
2022/12/15 01:35:11;;;;;;;56.05;31.60;;;;;;;;;;4961422;28;20086;-79
2022/12/15 01:37:38;;;;;;;59.50;32.30;;;;;;;;;;4968582;28;20075;-79
2022/12/15 01:42:52;;;;;;;56.55;31.42;;;;;;;;;;4964097;28;20055;-78
2022/12/15 01:45:28;;;;;;;61.33;33.38;;;;;;;;;;4958341;29;20480;-78
2022/12/15 01:48:05;;;;;;;55.88;30.98;;;;;;;;;;4978475;28;20428;-78
2022/12/15 01:50:36;;;;;;;59.60;32.60;;;;;;;;;;4947576;28;20055;-78
2022/12/15 01:53:03;;;;;;;58.33;32.42;;;;;;;;;;4965610;28;20114;-78
2022/12/15 01:55:30;;;;;;;56.53;31.30;;;;;;;;;;4930577;28;20058;-78
2022/12/15 01:58:01;;;;;;;58.90;31.52;;;;;;;;;;4945036;28;20578;-77
2022/12/15 02:00:28;;;;;;;56.97;32.40;;;;;;;;;;4968873;28;20054;-78
2022/12/15 02:02:56;;;;;;;55.40;31.55;;;;;;;;;;4961860;28;20050;-78
2022/12/15 02:05:23;;;;;;;55.95;31.00;;;;;;;;;;4956684;28;20082;-78
2022/12/15 02:07:49;;;;;;;57.22;32.05;;;;;;;;;;4964680;28;20057;-78
2022/12/15 02:10:16;;;;;;;55.75;31.60;;;;;;;;;;4950285;28;20049;-78
2022/12/15 02:13:09;;;;;;;56.95;32.58;;;;;;;;;;4966669;28;20055;-78
2022/12/15 02:15:48;;;;;;;57.28;31.33;;;;;;;;;;4951070;28;20053;-77
2022/12/15 02:18:25;;;;;;;57.20;32.35;;;;;;;;;;4968356;28;20050;-78
2022/12/15 02:21:01;;;;;;;56.35;30.95;;;;;;;;;;4963741;28;20125;-79
2022/12/15 02:23:43;;;;;;;58.00;31.35;;;;;;;;;;4974744;28;20054;-79
2022/12/15 02:26:10;;;;;;;55.42;32.35;;;;;;;;;;4972883;28;20059;-76
2022/12/15 02:28:55;;;;;;;57.28;31.45;;;;;;;;;;4977592;28;20396;-78
2022/12/15 02:34:34;;;;;;;57.38;31.50;;;;;;;;;;4971856;28;20110;-79
2022/12/15 02:37:07;;;;;;;57.22;31.48;;;;;;;;;;4985330;28;20118;-80
2022/12/15 02:39:34;;;;;;;59.20;32.92;;;;;;;;;;4952880;28;20055;-85
2022/12/15 02:42:00;;;;;;;59.88;34.15;;;;;;;;;;4974102;28;20051;-86
2022/12/15 02:44:36;;;;;;;56.33;30.75;;;;;;;;;;4936995;29;20726;-83
2022/12/15 02:47:25;;;;;;;60.20;31.42;;;;;;;;;;4961527;28;20050;-79
2022/12/15 02:50:07;;;;;;;60.17;32.22;;;;;;;;;;4980947;28;20406;-80
2022/12/15 02:52:53;;;;;;;57.63;31.90;;;;;;;;;;4968242;28;20054;-80
2022/12/15 02:55:22;;;;;;;53.83;31.92;;;;;;;;;;4992747;28;20058;-79
2022/12/15 02:58:03;;;;;;;61.05;32.35;;;;;;;;;;4986227;28;20058;-80
2022/12/15 03:00:32;;;;;;;60.25;32.28;;;;;;;;;;4954254;28;20062;-80
2022/12/15 03:02:59;;;;;;;57.25;31.75;;;;;;;;;;4954499;29;20138;-81
2022/12/15 03:05:27;;;;;;;56.72;30.42;;;;;;;;;;4952482;28;20065;-79
2022/12/15 03:07:53;;;;;;;59.05;31.88;;;;;;;;;;4964816;28;20110;-80
2022/12/15 03:10:22;;;;;;;58.92;31.73;;;;;;;;;;4948910;28;20055;-81
2022/12/15 03:12:49;;;;;;;54.78;30.73;;;;;;;;;;4950317;28;20067;-80
2022/12/15 03:15:17;;;;;;;59.30;32.83;;;;;;;;;;4943031;29;20066;-80
2022/12/15 03:17:44;;;;;;;53.45;30.10;;;;;;;;;;4944151;29;20051;-81
2022/12/15 03:20:11;;;;;;;58.83;30.42;;;;;;;;;;4961309;29;20055;-80
2022/12/15 03:22:37;;;;;;;56.67;32.20;;;;;;;;;;4969425;28;20058;-80
2022/12/15 03:25:07;;;;;;;57.47;31.25;;;;;;;;;;4950144;29;20051;-80
2022/12/15 03:27:34;;;;;;;59.88;32.63;;;;;;;;;;4963989;29;20492;-80
2022/12/15 03:30:01;;;;;;;64.13;33.88;;;;;;;;;;4961109;29;20058;-80
2022/12/15 03:32:28;;;;;;;54.10;31.13;;;;;;;;;;4962661;28;20063;-78
2022/12/15 03:34:55;;;;;;;60.17;32.55;;;;;;;;;;4966030;28;20055;-78
2022/12/15 03:37:21;;;;;;;55.72;33.30;;;;;;;;;;4983228;28;20043;-78
2022/12/15 03:39:48;;;;;;;56.67;30.20;;;;;;;;;;4951649;28;20058;-78
2022/12/15 03:42:46;;;;;;;57.75;31.17;;;;;;;;;;4950786;28;20050;-78
2022/12/15 03:45:02;;;;;;;54.72;30.15;;;;;;;;;;4964090;29;20059;-78
2022/12/15 03:47:29;;;;;;;66.07;32.70;;;;;;;;;;4962855;29;20051;-78
2022/12/15 03:49:55;;;;;;;61.08;31.58;;;;;;;;;;4959209;29;20479;-78
2022/12/15 03:52:22;;;;;;;54.40;30.23;;;;;;;;;;4974194;28;20114;-78
2022/12/15 03:54:49;;;;;;;54.05;30.35;;;;;;;;;;4961478;28;20059;-79
2022/12/15 03:57:15;;;;;;;59.35;29.60;;;;;;;;;;4977152;28;20043;-78
2022/12/15 03:59:42;;;;;;;56.40;30.75;;;;;;;;;;4958108;28;20054;-78
2022/12/15 04:02:13;;;;;;;56.70;30.45;;;;;;;;;;4956543;28;20058;-78
2022/12/15 04:04:40;;;;;;;57.85;30.45;;;;;;;;;;4954040;28;20055;-78
2022/12/15 04:07:08;;;;;;;54.15;29.33;;;;;;;;;;4939998;29;20078;-78
2022/12/15 04:09:35;;;;;;;55.10;32.22;;;;;;;;;;4969195;28;20059;-79
2022/12/15 04:12:02;;;;;;;55.33;30.02;;;;;;;;;;4954209;28;20491;-80
2022/12/15 04:14:29;;;;;;;56.50;31.55;;;;;;;;;;4954524;28;20058;-80
2022/12/15 04:16:56;;;;;;;55.70;31.20;;;;;;;;;;4958816;28;20599;-79
2022/12/15 04:22:08;;;;;;;54.75;31.02;;;;;;;;;;4979516;28;20637;-79
2022/12/15 05:33:39;;;;;;;56.10;29.92;;;;;;;;;;4978787;28;20415;-80
2022/12/15 05:36:06;;;;;;;52.17;27.67;;;;;;;;;;4954271;28;20061;-79
2022/12/15 05:38:39;;;;;;;52.08;28.55;;;;;;;;;;4965502;28;20047;-79
2022/12/15 05:41:06;;;;;;;55.10;28.88;;;;;;;;;;4967987;28;20061;-78
2022/12/15 05:43:33;;;;;;;49.15;27.83;;;;;;;;;;4952204;28;20055;-78
2022/12/15 05:46:04;;;;;;;52.60;29.48;;;;;;;;;;4969225;28;20535;-78
2022/12/15 05:48:31;;;;;;;53.67;29.42;;;;;;;;;;4968999;28;20085;-78
2022/12/15 05:51:03;;;;;;;61.42;31.88;;;;;;;;;;4988238;28;20062;-78
2022/12/15 05:53:29;;;;;;;58.78;30.35;;;;;;;;;;4967009;28;20054;-78
2022/12/15 05:56:05;;;;;;;60.47;32.17;;;;;;;;;;4968032;28;20054;-79
2022/12/15 05:58:32;;;;;;;55.72;29.95;;;;;;;;;;4981305;28;20066;-78
2022/12/15 06:01:13;;;;;;;54.50;30.13;;;;;;;;;;4988283;28;20063;-77
2022/12/15 06:03:40;;;;;;;54.92;30.15;;;;;;;;;;4984462;28;20499;-77
2022/12/15 06:06:07;;;;;;;51.08;28.95;;;;;;;;;;4983283;28;20374;-78
2022/12/15 06:08:36;;;;;;;49.42;27.67;;;;;;;;;;4974944;28;20105;-78
2022/12/15 06:11:03;;;;;;;53.33;29.95;;;;;;;;;;4969277;28;20086;-78
2022/12/15 06:13:31;;;;;;;52.80;29.80;;;;;;;;;;4953943;28;20054;-79
2022/12/15 06:16:19;;;;;;;50.67;29.50;;;;;;;;;;4965189;28;20165;-78
2022/12/15 06:18:52;;;;;;;51.50;29.98;;;;;;;;;;4964310;28;20047;-80
2022/12/15 06:21:25;;;;;;;49.95;28.23;;;;;;;;;;4951616;28;20062;-81
2022/12/15 06:23:54;;;;;;;54.37;29.63;;;;;;;;;;4957898;28;20527;-80
2022/12/15 06:26:29;;;;;;;53.85;30.55;;;;;;;;;;4961539;29;20082;-81
2022/12/15 06:28:57;;;;;;;52.97;29.48;;;;;;;;;;4961352;28;20054;-80
2022/12/15 06:31:24;;;;;;;50.55;28.58;;;;;;;;;;4942018;29;20419;-79
2022/12/15 06:33:52;;;;;;;52.67;30.05;;;;;;;;;;4957464;28;20066;-81
2022/12/15 06:36:27;;;;;;;55.22;27.92;;;;;;;;;;4934611;29;20483;-80
2022/12/15 06:38:57;;;;;;;51.17;28.67;;;;;;;;;;4942677;29;20059;-80
2022/12/15 06:41:24;;;;;;;53.53;31.45;;;;;;;;;;4994492;28;20125;-80
2022/12/15 06:43:54;;;;;;;57.95;30.83;;;;;;;;;;4940209;28;20077;-79
2022/12/15 06:46:22;;;;;;;54.70;30.80;;;;;;;;;;4950608;28;20065;-80
2022/12/15 06:48:49;;;;;;;57.47;33.97;;;;;;;;;;4970313;28;20070;-80
2022/12/15 06:51:16;;;;;;;56.97;32.60;;;;;;;;;;4986527;28;20063;-80
2022/12/15 06:53:47;;;;;;;58.00;31.42;;;;;;;;;;4969372;28;20399;-80
2022/12/15 06:56:18;;;;;;;51.63;29.95;;;;;;;;;;4970491;28;20059;-79
2022/12/15 06:58:49;;;;;;;57.33;31.20;;;;;;;;;;4963147;28;20043;-83
2022/12/15 07:01:17;;;;;;;55.00;30.27;;;;;;;;;;4960047;28;20109;-84
2022/12/15 07:03:44;;;;;;;60.33;30.48;;;;;;;;;;4956816;29;20059;-81
2022/12/15 07:06:12;;;;;;;56.55;31.08;;;;;;;;;;4971810;28;20527;-82
2022/12/15 07:08:39;;;;;;;58.58;30.90;;;;;;;;;;4939547;29;20098;-79
2022/12/15 07:11:09;;;;;;;59.88;30.67;;;;;;;;;;4971682;28;20427;-80
2022/12/15 07:13:36;;;;;;;57.95;30.15;;;;;;;;;;4941821;29;20086;-82
2022/12/15 07:16:05;;;;;;;56.40;29.58;;;;;;;;;;4970540;28;20054;-81
2022/12/15 07:18:32;;;;;;;60.72;34.60;;;;;;;;;;4973983;28;20054;-83
2022/12/15 07:21:07;;;;;;;60.00;34.22;;;;;;;;;;4956733;28;20459;-84
2022/12/15 07:23:35;;;;;;;61.28;34.25;;;;;;;;;;4973317;28;20074;-83
2022/12/15 07:26:19;;;;;;;57.45;31.63;;;;;;;;;;4947129;28;20062;-83
2022/12/15 07:28:46;;;;;;;57.33;29.77;;;;;;;;;;4957001;28;20039;-84
2022/12/15 07:31:14;;;;;;;52.17;30.10;;;;;;;;;;4959481;28;20059;-85
2022/12/15 07:33:41;;;;;;;58.45;29.77;;;;;;;;;;4958187;28;20054;-85
2022/12/15 07:36:08;;;;;;;49.28;29.10;;;;;;;;;;4975168;28;20066;-83
2022/12/15 07:38:35;;;;;;;57.38;29.80;;;;;;;;;;4958485;28;20055;-85
2022/12/15 07:41:03;;;;;;;62.83;31.70;;;;;;;;;;4970752;28;20051;-85
2022/12/15 07:43:31;;;;;;;54.63;30.20;;;;;;;;;;4965015;28;20411;-84
2022/12/15 07:45:59;;;;;;;54.17;29.70;;;;;;;;;;4960758;28;20065;-83
2022/12/15 07:48:26;;;;;;;54.70;30.15;;;;;;;;;;4976171;28;20043;-85
2022/12/15 07:50:56;;;;;;;55.92;29.92;;;;;;;;;;4963900;28;20510;-84
2022/12/15 07:53:34;;;;;;;52.17;29.30;;;;;;;;;;4963365;28;20057;-84
2022/12/15 07:56:03;;;;;;;52.47;28.48;;;;;;;;;;4944395;28;20062;-85
2022/12/15 07:58:35;;;;;;;49.42;28.15;;;;;;;;;;4945198;28;20055;-84
2022/12/15 08:01:04;;;;;;;57.63;30.33;;;;;;;;;;4952432;28;20058;-82
2022/12/15 08:03:31;;;;;;;54.67;29.65;;;;;;;;;;4940106;29;20062;-80
2022/12/15 08:06:10;;;;;;;50.22;27.83;;;;;;;;;;4953303;28;20106;-79
2022/12/15 08:08:38;;;;;;;52.20;27.60;;;;;;;;;;4938781;29;20047;-80
2022/12/15 08:11:09;;;;;;;57.42;28.70;;;;;;;;;;4923223;28;20523;-76
2022/12/15 08:13:37;;;;;;;55.35;27.88;;;;;;;;;;4938015;29;20051;-81
2022/12/15 08:16:24;;;;;;;55.85;30.15;;;;;;;;;;4940418;29;20665;-82
2022/12/15 08:18:51;;;;;;;49.90;27.30;;;;;;;;;;4955208;28;20074;-84
2022/12/15 08:21:17;;;;;;;52.78;28.15;;;;;;;;;;4972652;28;20059;-81
2022/12/15 08:23:44;;;;;;;49.72;26.98;;;;;;;;;;4968105;28;20055;-83
2022/12/15 08:26:13;;;;;;;53.75;29.30;;;;;;;;;;4959071;28;20047;-84
2022/12/15 08:28:40;;;;;;;50.30;27.88;;;;;;;;;;4974203;28;20513;-80
2022/12/15 08:31:14;;;;;;;53.78;29.80;;;;;;;;;;4958669;28;20054;-81
2022/12/15 08:33:41;;;;;;;50.00;26.95;;;;;;;;;;4954167;28;20134;-85
2022/12/15 08:36:10;;;;;;;50.55;26.58;;;;;;;;;;4923200;28;20055;-82
2022/12/15 08:38:37;;;;;;;49.75;26.83;;;;;;;;;;4940410;28;20130;-82
2022/12/15 08:41:16;;;;;;;43.97;26.23;;;;;;;;;;4949041;28;20069;-82
2022/12/15 08:43:43;;;;;;;46.85;25.73;;;;;;;;;;4965398;28;20070;-81
2022/12/15 08:46:25;;;;;;;50.45;27.42;;;;;;;;;;4957420;28;20054;-81
2022/12/15 08:48:52;;;;;;;50.22;26.83;;;;;;;;;;4970316;28;20440;-81
2022/12/15 08:51:21;;;;;;;50.15;28.95;;;;;;;;;;4935544;28;20055;-81
2022/12/15 08:53:48;;;;;;;46.85;26.55;;;;;;;;;;4949400;28;20059;-81
2022/12/15 08:56:18;;;;;;;52.63;27.52;;;;;;;;;;4972362;28;20043;-82
2022/12/15 08:58:46;;;;;;;53.95;27.98;;;;;;;;;;4954636;28;20420;-82
2022/12/15 09:01:18;;;;;;;47.47;25.60;;;;;;;;;;4956469;28;20046;-82
2022/12/15 09:03:50;;;;;;;44.60;26.63;;;;;;;;;;4961271;28;20431;-81
2022/12/15 09:06:21;;;;;;;46.58;25.38;;;;;;;;;;4949389;28;20197;-82
2022/12/15 09:08:48;;;;;;;48.42;26.30;;;;;;;;;;4947429;28;20043;-82
2022/12/15 09:11:16;;;;;;;50.80;25.65;;;;;;;;;;4953037;28;20055;-83
2022/12/15 09:13:43;;;;;;;49.53;27.42;;;;;;;;;;4966840;28;20062;-83
2022/12/15 09:16:14;;;;;;;51.85;27.08;;;;;;;;;;4957096;28;20158;-82
2022/12/15 09:18:43;;;;;;;50.25;26.50;;;;;;;;;;4935751;28;20049;-82
2022/12/15 09:21:10;;;;;;;52.50;27.55;;;;;;;;;;4964145;28;20046;-83
2022/12/15 09:23:38;;;;;;;50.88;26.88;;;;;;;;;;4951955;28;20070;-81
2022/12/15 09:26:07;;;;;;;48.45;26.63;;;;;;;;;;4972040;28;20448;-82
2022/12/15 09:28:34;;;;;;;46.92;25.45;;;;;;;;;;4977479;28;20055;-82
2022/12/15 09:31:09;;;;;;;46.58;27.08;;;;;;;;;;4954780;28;20053;-82
2022/12/15 09:33:38;;;;;;;49.22;26.45;;;;;;;;;;4967653;28;20070;-82
2022/12/15 09:36:05;;;;;;;49.67;27.70;;;;;;;;;;4983467;28;20467;-82
2022/12/15 09:38:33;;;;;;;45.25;24.98;;;;;;;;;;4951302;28;20047;-82
2022/12/15 09:41:07;;;;;;;48.83;26.73;;;;;;;;;;4953434;28;20070;-82
2022/12/15 09:43:35;;;;;;;44.13;24.80;;;;;;;;;;4953793;28;20062;-82
2022/12/15 09:46:42;;;;;;;46.90;25.55;;;;;;;;;;4970873;28;20058;-82
2022/12/15 09:49:22;;;;;;;45.55;24.08;;;;;;;;;;4944766;28;20467;-82
2022/12/15 09:51:52;;;;;;;43.83;24.30;;;;;;;;;;4956849;28;20575;-82
2022/12/15 09:54:19;;;;;;;47.88;26.08;;;;;;;;;;4958179;28;20057;-83
2022/12/15 09:56:54;;;;;;;43.22;24.65;;;;;;;;;;4963383;28;20073;-82
2022/12/15 09:59:39;;;;;;;43.05;24.02;;;;;;;;;;4981185;28;20151;-82
2022/12/15 10:02:26;;;;;;;41.15;23.40;;;;;;;;;;4957499;28;20055;-82
2022/12/15 10:05:02;;;;;;;46.65;24.75;;;;;;;;;;4931061;28;20055;-82
2022/12/15 10:07:33;;;;;;;42.65;23.90;;;;;;;;;;4957726;28;20077;-83
2022/12/15 10:10:29;;;;;;;42.53;23.73;;;;;;;;;;4956975;28;20051;-83
2022/12/15 10:12:57;;;;;;;45.33;23.48;;;;;;;;;;4936209;28;20135;-82
2022/12/15 10:15:30;;;;;;;42.70;24.75;;;;;;;;;;4944604;28;20078;-82
2022/12/15 10:18:21;;;;;;;44.78;23.80;;;;;;;;;;4959962;28;20062;-82
2022/12/15 10:20:50;;;;;;;45.05;23.83;;;;;;;;;;4960614;28;20062;-82
2022/12/15 10:23:17;;;;;;;44.80;23.17;;;;;;;;;;4976092;28;20062;-81
2022/12/15 10:26:18;;;;;;;43.10;23.48;;;;;;;;;;4944359;28;20066;-81
2022/12/15 10:29:23;;;;;;;39.67;23.02;;;;;;;;;;4955960;28;20051;-82
2022/12/15 10:32:12;;;;;;;46.28;25.25;;;;;;;;;;4976141;28;20113;-83
2022/12/15 10:34:39;;;;;;;44.95;24.90;;;;;;;;;;4960483;28;20059;-84
2022/12/15 10:37:18;;;;;;;43.35;25.20;;;;;;;;;;4956037;28;20138;-82
2022/12/15 10:39:47;;;;;;;43.50;24.25;;;;;;;;;;4955545;28;20051;-83
2022/12/15 10:42:20;;;;;;;48.95;26.88;;;;;;;;;;4967809;28;20054;-85
2022/12/15 10:44:49;;;;;;;46.03;26.05;;;;;;;;;;4966033;28;20526;-83
2022/12/15 10:47:22;;;;;;;43.20;23.92;;;;;;;;;;4941768;28;20463;-84
2022/12/15 10:49:49;;;;;;;45.47;24.58;;;;;;;;;;4967780;28;20047;-84
2022/12/15 10:52:22;;;;;;;40.05;23.50;;;;;;;;;;4942605;28;20145;-83
2022/12/15 10:54:51;;;;;;;44.60;24.98;;;;;;;;;;4973748;28;20055;-82
2022/12/15 10:57:21;;;;;;;42.50;24.92;;;;;;;;;;4968686;28;20087;-82
2022/12/15 10:59:48;;;;;;;43.10;24.00;;;;;;;;;;4958278;28;20054;-82
2022/12/15 11:02:35;;;;;;;42.92;24.02;;;;;;;;;;4971056;28;20117;-83
2022/12/15 11:05:15;;;;;;;41.70;23.42;;;;;;;;;;4943020;28;20427;-83
2022/12/15 11:07:55;;;;;;;39.67;23.77;;;;;;;;;;4935946;28;20059;-83
2022/12/15 11:12:50;;;;;;;43.45;24.38;;;;;;;;;;4945547;28;20051;-83
2022/12/15 11:13:17;;;;;;;42.95;24.17;;;;;;;;;;4967657;28;20054;-83
2022/12/15 11:15:46;;;;;;;43.90;23.92;;;;;;;;;;4958601;28;20055;-83
2022/12/15 11:18:28;;;;;;;46.22;24.60;;;;;;;;;;4955359;28;20062;-82
2022/12/15 11:21:11;;;;;;;42.05;24.98;;;;;;;;;;4970730;28;20527;-83
2022/12/15 11:23:54;;;;;;;40.15;24.33;;;;;;;;;;4971491;28;20051;-83
2022/12/15 11:26:35;;;;;;;44.30;24.88;;;;;;;;;;4979403;28;20052;-83
2022/12/15 11:29:22;;;;;;;44.45;24.55;;;;;;;;;;4955798;28;20058;-84
2022/12/15 11:31:53;;;;;;;39.03;24.13;;;;;;;;;;4950146;28;20118;-84
2022/12/15 11:34:44;;;;;;;41.10;24.23;;;;;;;;;;4956210;28;20055;-85
2022/12/15 11:37:27;;;;;;;38.08;23.60;;;;;;;;;;4966261;28;20478;-83
2022/12/15 11:40:40;;;;;;;42.50;24.30;;;;;;;;;;4968825;28;20137;-83
2022/12/15 11:43:48;;;;;;;38.72;23.00;;;;;;;;;;4927456;28;20055;-77
2022/12/15 11:46:22;;;;;;;40.47;24.98;;;;;;;;;;4932719;28;20070;-80
2022/12/15 11:49:12;;;;;;;42.65;24.48;;;;;;;;;;4969662;28;20062;-81
2022/12/15 11:52:02;;;;;;;45.92;26.83;;;;;;;;;;4961575;28;20393;-81
2022/12/15 11:54:36;;;;;;;41.78;23.95;;;;;;;;;;4956416;28;20069;-82
2022/12/15 11:57:15;;;;;;;39.55;22.98;;;;;;;;;;4970818;28;20058;-82
2022/12/15 12:00:03;;;;;;;37.63;22.83;;;;;;;;;;4971015;28;20467;-81
2022/12/15 12:03:09;;;;;;;40.03;24.08;;;;;;;;;;4978877;28;20050;-82
2022/12/15 12:05:57;;;;;;;42.20;23.75;;;;;;;;;;4952130;28;20094;-84
2022/12/15 12:08:45;;;;;;;41.97;25.80;;;;;;;;;;4966587;28;20030;-81
2022/12/15 12:11:42;;;;;;;38.63;23.90;;;;;;;;;;4951718;28;20057;-81
2022/12/15 12:14:26;;;;;;;36.50;22.50;;;;;;;;;;4952447;28;20168;-81
2022/12/15 12:16:59;;;;;;;41.75;24.58;;;;;;;;;;4970752;28;20085;-80
2022/12/15 12:19:26;;;;;;;39.05;23.65;;;;;;;;;;4953705;28;20467;-81
2022/12/15 12:21:58;;;;;;;36.72;22.70;;;;;;;;;;4956373;28;20651;-80
2022/12/15 12:24:40;;;;;;;39.83;22.90;;;;;;;;;;4938504;28;20058;-80
2022/12/15 12:27:33;;;;;;;41.10;22.58;;;;;;;;;;4954846;28;20046;-82
2022/12/15 12:30:13;;;;;;;40.38;24.10;;;;;;;;;;4951574;28;20558;-86
2022/12/15 12:33:21;;;;;;;41.40;24.52;;;;;;;;;;4947558;28;20047;-83
2022/12/15 12:35:56;;;;;;;38.58;22.50;;;;;;;;;;4960282;28;20047;-84
2022/12/15 12:38:29;;;;;;;41.33;23.23;;;;;;;;;;4952422;28;20145;-84
2022/12/15 12:41:01;;;;;;;37.97;22.40;;;;;;;;;;4957792;28;20061;-84
2022/12/15 12:43:34;;;;;;;39.40;23.73;;;;;;;;;;4956747;28;20102;-84
2022/12/15 12:46:31;;;;;;;39.85;22.98;;;;;;;;;;4965537;28;20074;-84
2022/12/15 12:49:16;;;;;;;40.33;23.27;;;;;;;;;;4976636;28;20057;-82
2022/12/15 12:51:51;;;;;;;;;;;;;;;;;;4965697;28;20061;-85
2022/12/15 12:54:37;;;;;;;42.28;24.65;;;;;;;;;;4954840;28;19972;-84
2022/12/15 12:57:13;;;;;;;38.08;22.63;;;;;;;;;;4970994;28;20054;-83
2022/12/15 12:59:41;;;;;;;42.53;23.08;;;;;;;;;;4969404;28;20074;-85
2022/12/15 13:02:20;;;;;;;38.08;22.83;;;;;;;;;;4952258;28;20471;-83
2022/12/15 13:05:20;;;;;;;40.35;23.45;;;;;;;;;;4947943;28;20054;-83
2022/12/15 13:08:07;;;;;;;38.50;23.15;;;;;;;;;;4964399;28;20050;-83
2022/12/15 13:10:35;;;;;;;37.80;23.45;;;;;;;;;;4964291;28;20055;-83
2022/12/15 13:13:17;;;;;;;41.40;23.25;;;;;;;;;;4951343;28;20054;-83
2022/12/15 13:15:47;;;;;;;40.30;22.88;;;;;;;;;;4974355;28;20408;-83
2022/12/15 13:19:03;;;;;;;40.60;23.48;;;;;;;;;;4955868;28;20062;-82
2022/12/15 13:21:42;;;;;;;41.13;22.80;;;;;;;;;;4966634;28;20327;-83
2022/12/15 13:24:44;;;;;;;38.47;22.35;;;;;;;;;;4974244;28;20058;-83
2022/12/15 13:27:35;;;;;;;38.45;22.23;;;;;;;;;;4953852;28;20392;-84
2022/12/15 13:30:14;;;;;;;40.35;23.38;;;;;;;;;;4952322;28;20507;-83
2022/12/15 13:32:45;;;;;;;41.25;23.38;;;;;;;;;;4946099;28;20050;-84
2022/12/15 13:35:13;;;;;;;35.87;21.23;;;;;;;;;;4971548;28;20082;-83
2022/12/15 13:37:53;;;;;;;43.63;24.10;;;;;;;;;;4978630;28;20063;-83
2022/12/15 13:40:35;;;;;;;38.80;22.63;;;;;;;;;;4955444;28;20050;-83
2022/12/15 13:43:08;;;;;;;37.65;21.90;;;;;;;;;;4982706;28;20051;-83
2022/12/15 13:45:49;;;;;;;44.75;24.38;;;;;;;;;;4946499;28;20078;-83
2022/12/15 13:48:36;;;;;;;42.85;22.75;;;;;;;;;;4969308;28;20062;-83
2022/12/15 13:51:24;;;;;;;40.95;22.63;;;;;;;;;;4958377;28;20555;-84
2022/12/15 13:54:18;;;;;;;38.22;21.88;;;;;;;;;;4970329;28;20066;-84
2022/12/15 13:57:07;;;;;;;41.38;23.23;;;;;;;;;;4974400;28;20064;-81
2022/12/15 13:59:44;;;;;;;43.35;24.13;;;;;;;;;;4978103;28;20061;-84
2022/12/15 14:02:34;;;;;;;40.78;22.02;;;;;;;;;;4978207;28;20062;-84
2022/12/15 14:05:21;;;;;;;40.22;22.30;;;;;;;;;;4976797;28;20054;-85
2022/12/15 14:07:55;;;;;;;41.35;23.88;;;;;;;;;;4974853;28;20418;-81
2022/12/15 14:10:40;;;;;;;42.40;23.55;;;;;;;;;;4943838;28;20039;-81
2022/12/15 14:13:17;;;;;;;41.88;21.65;;;;;;;;;;4975899;28;20099;-81
2022/12/15 14:15:48;;;;;;;44.83;24.67;;;;;;;;;;4966252;28;20055;-83
2022/12/15 14:18:29;;;;;;;42.70;23.05;;;;;;;;;;4955166;28;20178;-83
2022/12/15 14:20:57;;;;;;;40.28;22.23;;;;;;;;;;4959724;28;20414;-86
2022/12/15 14:23:29;;;;;;;41.88;21.80;;;;;;;;;;4955648;28;20089;-84
2022/12/15 14:26:05;;;;;;;39.70;22.65;;;;;;;;;;4944673;28;20058;-84
2022/12/15 14:28:34;;;;;;;38.33;22.88;;;;;;;;;;4953198;28;20063;-81
2022/12/15 14:31:13;;;;;;;40.78;23.77;;;;;;;;;;4959951;28;20050;-83
2022/12/15 14:33:41;;;;;;;41.70;22.90;;;;;;;;;;4942245;28;20054;-84
2022/12/15 14:36:09;;;;;;;39.45;22.75;;;;;;;;;;4959765;28;20057;-83
2022/12/15 14:38:42;;;;;;;39.35;22.42;;;;;;;;;;4941387;28;20061;-81
2022/12/15 14:41:21;;;;;;;43.90;22.27;;;;;;;;;;4977420;28;20627;-81
2022/12/15 14:43:51;;;;;;;40.30;23.85;;;;;;;;;;4937620;28;20043;-85
2022/12/15 14:46:38;;;;;;;44.60;23.40;;;;;;;;;;4962449;28;20043;-81
2022/12/15 14:49:06;;;;;;;40.90;21.50;;;;;;;;;;4938840;28;20051;-83
2022/12/15 14:51:41;;;;;;;38.83;21.38;;;;;;;;;;4965767;28;20085;-83
2022/12/15 14:54:27;;;;;;;38.08;21.95;;;;;;;;;;4943442;28;20431;-82
2022/12/15 14:57:13;;;;;;;39.30;21.02;;;;;;;;;;4973421;28;20117;-82
2022/12/15 14:59:42;;;;;;;37.03;20.17;;;;;;;;;;4973820;28;20047;-82
2022/12/15 15:02:23;;;;;;;39.33;21.90;;;;;;;;;;4964164;28;20086;-82
2022/12/15 15:04:58;;;;;;;37.05;20.77;;;;;;;;;;4951757;28;20051;-82
2022/12/15 15:07:25;;;;;;;38.33;21.63;;;;;;;;;;4938633;28;20058;-83
2022/12/15 15:09:53;;;;;;;36.70;20.77;;;;;;;;;;4947885;28;20054;-83
2022/12/15 15:12:21;;;;;;;35.38;20.35;;;;;;;;;;4984137;28;20065;-83
2022/12/15 15:15:04;;;;;;;36.47;20.92;;;;;;;;;;4974436;28;20062;-83
2022/12/15 15:17:36;;;;;;;37.22;20.42;;;;;;;;;;4975474;28;20055;-83
2022/12/15 15:20:16;;;;;;;36.58;21.15;;;;;;;;;;4957321;28;20063;-84
2022/12/15 15:22:54;;;;;;;35.83;20.05;;;;;;;;;;4962332;28;20407;-83
2022/12/15 15:25:26;;;;;;;36.92;20.15;;;;;;;;;;4973505;28;20079;-83
2022/12/15 15:28:17;;;;;;;38.70;21.58;;;;;;;;;;4970546;28;20047;-83
2022/12/15 15:30:56;;;;;;;35.45;20.73;;;;;;;;;;4950509;28;20070;-83
2022/12/15 15:33:23;;;;;;;36.55;19.30;;;;;;;;;;4944281;28;20122;-84
2022/12/15 15:35:52;;;;;;;35.50;20.77;;;;;;;;;;4955594;28;20419;-83
2022/12/15 15:38:23;;;;;;;33.83;18.23;;;;;;;;;;4943114;28;20057;-83
2022/12/15 15:41:00;;;;;;;34.60;19.17;;;;;;;;;;4952618;28;20050;-84
2022/12/15 15:43:27;;;;;;;31.13;18.50;;;;;;;;;;4955049;28;20061;-83
2022/12/15 15:46:05;;;;;;;30.60;18.17;;;;;;;;;;4947192;28;20062;-84
2022/12/15 15:49:00;;;;;;;30.70;18.65;;;;;;;;;;4960151;28;20086;-82
2022/12/15 15:51:27;;;;;;;29.38;17.27;;;;;;;;;;4960042;28;20050;-82
2022/12/15 15:54:00;;;;;;;32.45;20.15;;;;;;;;;;4953152;28;20058;-80
2022/12/15 15:56:27;;;;;;;33.95;19.85;;;;;;;;;;4970007;28;20131;-82
2022/12/15 15:58:53;;;;;;;30.00;18.80;;;;;;;;;;4970652;28;20063;-82
2022/12/15 16:01:20;;;;;;;33.92;18.58;;;;;;;;;;4978166;28;20043;-82
2022/12/15 16:03:47;;;;;;;34.17;18.88;;;;;;;;;;4962594;28;20061;-82
2022/12/15 16:06:18;;;;;;;36.95;20.92;;;;;;;;;;4960066;28;20133;-78
2022/12/15 16:08:48;;;;;;;44.83;24.30;;;;;;;;;;4948623;28;20066;-82
2022/12/15 16:11:16;;;;;;;48.00;25.05;;;;;;;;;;4962452;28;20415;-83
2022/12/15 16:13:43;;;;;;;40.33;22.40;;;;;;;;;;4951492;28;20394;-81
2022/12/15 16:16:21;;;;;;;47.40;26.42;;;;;;;;;;4975780;28;20054;-82
2022/12/15 16:18:48;;;;;;;40.65;23.50;;;;;;;;;;4950504;28;20065;-81
2022/12/15 16:21:15;;;;;;;40.85;23.38;;;;;;;;;;4951957;28;20043;-82
2022/12/15 16:23:44;;;;;;;36.42;21.17;;;;;;;;;;4955073;28;20439;-81
2022/12/15 16:26:16;;;;;;;33.00;19.65;;;;;;;;;;4956807;28;20051;-82
2022/12/15 16:28:42;;;;;;;32.73;18.13;;;;;;;;;;4974333;28;20558;-82
2022/12/15 16:31:35;;;;;;;30.33;17.70;;;;;;;;;;4941724;28;20599;-82
2022/12/15 16:34:07;;;;;;;30.50;18.75;;;;;;;;;;4949887;28;20500;-82
2022/12/15 16:36:35;;;;;;;33.72;19.27;;;;;;;;;;4971199;28;20824;-82
2022/12/15 16:39:02;;;;;;;29.63;17.88;;;;;;;;;;4954287;28;20062;-83
2022/12/15 16:41:31;;;;;;;29.58;17.85;;;;;;;;;;4938394;28;20058;-82
2022/12/15 16:43:59;;;;;;;33.47;19.00;;;;;;;;;;4954229;28;20306;-81
2022/12/15 16:46:25;;;;;;;32.40;17.70;;;;;;;;;;4970736;28;20058;-83
2022/12/15 16:48:53;;;;;;;30.42;17.67;;;;;;;;;;4967745;28;20479;-83
2022/12/15 16:51:36;;;;;;;32.05;18.40;;;;;;;;;;4970316;28;20050;-83
2022/12/15 16:54:04;;;;;;;31.75;18.98;;;;;;;;;;4971432;28;20055;-82
2022/12/15 16:56:31;;;;;;;31.33;18.98;;;;;;;;;;4968201;28;20061;-82
2022/12/15 16:58:58;;;;;;;31.25;19.00;;;;;;;;;;4946183;28;20069;-82
2022/12/15 17:01:45;;;;;;;32.25;18.88;;;;;;;;;;4974001;28;20535;-83
2022/12/15 17:04:15;;;;;;;31.83;18.45;;;;;;;;;;4966409;28;20047;-83
2022/12/15 17:06:42;;;;;;;32.83;18.08;;;;;;;;;;4968035;28;20054;-83
2022/12/15 17:09:24;;;;;;;31.67;18.65;;;;;;;;;;4959671;28;20054;-82
2022/12/15 17:11:52;;;;;;;34.92;19.98;;;;;;;;;;4973352;28;20051;-82
2022/12/15 17:14:19;;;;;;;31.83;18.23;;;;;;;;;;4962085;28;20088;-83
2022/12/15 17:16:47;;;;;;;32.58;18.70;;;;;;;;;;4959190;28;20487;-84
2022/12/15 17:19:14;;;;;;;34.15;20.55;;;;;;;;;;4960177;28;20396;-83
2022/12/15 17:21:48;;;;;;;33.50;19.17;;;;;;;;;;4962088;28;20434;-83
2022/12/15 17:24:17;;;;;;;33.22;19.77;;;;;;;;;;4943799;28;20061;-83